Time;durP1;ratioP1;P1;durP2;ratioP2;P2;SDS_P1;SDS_P2;PMS_P1;PMS_P2;Temp;Humidity;BMP_temperature;BMP_pressure;BME280_temperature;BME280_humidity;BME280_pressure;Samples;Min_cycle;Max_cycle;Signal;HPM_P1;HPM_P2
2024/02/17 00:02:21;;;;;;;30.75;17.13;;;10.60;88.00;;;;;;5038773;28;20458;-73
2024/02/17 00:04:46;;;;;;;32.42;17.45;;;10.70;87.00;;;;;;5039744;28;20379;-75
2024/02/17 00:07:12;;;;;;;34.42;16.30;;;10.80;84.40;;;;;;5040210;28;20437;-73
2024/02/17 00:09:37;;;;;;;35.07;17.33;;;10.80;83.60;;;;;;5039057;28;20379;-75
2024/02/17 00:12:03;;;;;;;35.93;16.90;;;10.90;82.60;;;;;;5040255;28;20379;-74
2024/02/17 00:14:28;;;;;;;35.67;17.63;;;10.90;81.30;;;;;;5039011;28;20929;-74
2024/02/17 00:16:54;;;;;;;30.73;15.90;;;10.90;80.90;;;;;;5039838;28;20394;-75
2024/02/17 00:19:19;;;;;;;37.03;18.13;;;10.90;80.60;;;;;;5039194;28;20445;-74
2024/02/17 00:21:45;;;;;;;34.97;17.08;;;10.90;81.10;;;;;;5038760;28;20758;-75
2024/02/17 00:24:11;;;;;;;34.88;17.33;;;10.90;81.00;;;;;;5037648;28;20874;-75
2024/02/17 00:26:38;;;;;;;34.50;18.05;;;10.90;80.60;;;;;;5037558;28;20390;-74
2024/02/17 00:29:04;;;;;;;32.53;17.20;;;10.90;79.70;;;;;;5037252;28;20387;-75
2024/02/17 00:31:30;;;;;;;28.95;16.38;;;10.90;78.70;;;;;;5034173;28;20402;-74
2024/02/17 00:33:55;;;;;;;36.15;18.65;;;10.90;78.80;;;;;;5034028;28;20411;-74
2024/02/17 00:36:21;;;;;;;36.37;16.70;;;10.90;77.90;;;;;;5034162;28;20742;-75
2024/02/17 00:38:47;;;;;;;33.35;16.90;;;10.90;78.30;;;;;;5034461;28;20458;-74
2024/02/17 00:41:13;;;;;;;34.20;16.97;;;10.80;80.00;;;;;;5033916;28;20876;-73
2024/02/17 00:43:39;;;;;;;32.40;16.60;;;10.90;78.70;;;;;;5033577;28;20383;-74
2024/02/17 00:46:04;;;;;;;29.08;16.58;;;10.90;77.60;;;;;;5034047;28;20389;-74
2024/02/17 00:48:32;;;;;;;36.13;18.25;;;10.90;77.90;;;;;;5032305;28;20395;-74
2024/02/17 00:50:57;;;;;;;34.95;17.05;;;10.90;79.10;;;;;;5033638;28;20394;-74
2024/02/17 00:53:23;;;;;;;32.50;17.53;;;10.80;79.30;;;;;;5033354;28;20812;-73
2024/02/17 00:55:48;;;;;;;34.43;18.43;;;10.80;78.90;;;;;;5032968;28;20745;-73
2024/02/17 00:58:14;;;;;;;34.77;18.10;;;10.80;79.80;;;;;;5033502;28;20387;-73
2024/02/17 01:00:39;;;;;;;40.30;18.90;;;10.70;81.10;;;;;;5033358;28;20382;-74
2024/02/17 01:03:05;;;;;;;32.22;17.35;;;10.80;79.90;;;;;;5036288;28;20391;-73
2024/02/17 01:05:31;;;;;;;37.95;17.60;;;10.80;79.30;;;;;;5036353;28;20466;-74
2024/02/17 01:07:56;;;;;;;30.45;17.20;;;10.80;79.60;;;;;;5033071;28;20383;-76
2024/02/17 01:10:22;;;;;;;38.00;17.50;;;10.80;79.30;;;;;;5033336;28;20474;-74
2024/02/17 01:12:47;;;;;;;36.70;18.33;;;10.80;79.80;;;;;;5033252;28;20403;-76
2024/02/17 01:15:13;;;;;;;38.03;18.30;;;10.80;79.40;;;;;;5034706;28;20473;-78
2024/02/17 01:17:39;;;;;;;37.17;16.92;;;10.80;79.40;;;;;;5037089;28;20486;-78
2024/02/17 01:20:05;;;;;;;40.88;18.60;;;10.80;79.60;;;;;;5035919;28;20886;-76
2024/02/17 01:22:31;;;;;;;39.70;18.40;;;10.70;80.10;;;;;;5035118;28;20388;-77
2024/02/17 01:24:57;;;;;;;31.40;17.67;;;10.70;80.80;;;;;;5035558;28;20390;-78
2024/02/17 01:27:23;;;;;;;40.13;19.02;;;10.70;81.20;;;;;;5036097;28;20387;-76
2024/02/17 01:29:48;;;;;;;39.50;18.63;;;10.70;81.00;;;;;;5038167;28;20383;-76
2024/02/17 01:32:14;;;;;;;38.07;19.67;;;10.70;81.00;;;;;;5041213;28;20445;-77
2024/02/17 01:34:39;;;;;;;43.72;20.08;;;10.70;81.50;;;;;;5040387;28;20422;-78
2024/02/17 01:37:05;;;;;;;35.58;20.23;;;10.60;83.30;;;;;;5042289;28;20399;-77
2024/02/17 01:39:30;;;;;;;35.92;19.75;;;10.70;83.20;;;;;;5039746;28;20398;-77
2024/02/17 01:41:56;;;;;;;40.60;20.42;;;10.60;84.30;;;;;;5044754;28;20379;-77
2024/02/17 01:44:22;;;;;;;38.55;20.25;;;10.60;84.00;;;;;;5051624;28;20452;-77
2024/02/17 01:46:50;;;;;;;37.03;19.67;;;10.70;83.90;;;;;;5053029;28;20395;-77
2024/02/17 01:49:16;;;;;;;39.53;19.95;;;10.70;84.80;;;;;;5050184;28;20442;-76
2024/02/17 01:51:44;;;;;;;41.97;20.42;;;10.80;81.80;;;;;;5045114;28;20379;-78
2024/02/17 01:54:10;;;;;;;36.70;21.52;;;10.90;81.70;;;;;;5040662;28;20832;-78
2024/02/17 01:56:36;;;;;;;39.63;20.33;;;10.90;81.00;;;;;;5042519;28;20383;-77
2024/02/17 01:59:03;;;;;;;38.58;20.88;;;10.90;81.70;;;;;;5042894;28;20386;-78
2024/02/17 02:01:30;;;;;;;38.43;20.40;;;10.80;82.40;;;;;;5042318;28;20433;-77
2024/02/17 02:03:55;;;;;;;40.83;21.50;;;10.80;83.40;;;;;;5042919;28;20433;-77
2024/02/17 02:06:23;;;;;;;37.55;21.00;;;10.80;84.00;;;;;;5039473;28;20387;-76
2024/02/17 02:08:50;;;;;;;42.40;21.38;;;10.80;84.60;;;;;;5039259;28;20387;-76
2024/02/17 02:11:17;;;;;;;37.70;20.60;;;10.80;84.40;;;;;;5040870;28;20398;-76
2024/02/17 02:13:43;;;;;;;41.10;20.97;;;10.80;83.70;;;;;;5038914;28;20495;-77
2024/02/17 02:16:08;;;;;;;43.17;21.60;;;10.80;83.90;;;;;;5039582;28;20419;-77
2024/02/17 02:18:34;;;;;;;39.50;22.50;;;10.80;84.50;;;;;;5042085;28;20389;-77
2024/02/17 02:20:59;;;;;;;41.13;21.73;;;10.80;84.40;;;;;;5042326;28;20716;-76
2024/02/17 02:23:25;;;;;;;39.75;22.15;;;10.80;84.80;;;;;;5043770;28;20398;-78
2024/02/17 02:25:54;;;;;;;39.50;21.65;;;10.80;84.80;;;;;;5044454;28;20399;-76
2024/02/17 02:28:20;;;;;;;43.83;22.90;;;10.80;84.80;;;;;;5043975;28;20390;-76
2024/02/17 02:30:46;;;;;;;40.75;21.80;;;10.80;84.50;;;;;;5042789;28;20654;-78
2024/02/17 02:33:12;;;;;;;42.15;23.10;;;10.80;85.30;;;;;;5042985;28;20403;-76
2024/02/17 02:35:37;;;;;;;41.40;22.20;;;10.80;84.50;;;;;;5041324;28;20418;-76
2024/02/17 02:38:03;;;;;;;44.72;22.88;;;10.80;85.10;;;;;;5036975;28;20414;-79
2024/02/17 02:40:29;;;;;;;47.70;23.58;;;10.90;84.60;;;;;;5033968;28;20417;-76
2024/02/17 02:42:56;;;;;;;40.30;21.65;;;10.90;84.40;;;;;;5035967;28;20391;-78
2024/02/17 02:45:21;;;;;;;43.53;23.23;;;11.00;83.10;;;;;;5034416;28;20484;-77
2024/02/17 02:47:47;;;;;;;43.85;22.90;;;10.90;84.70;;;;;;5035338;28;20415;-76
2024/02/17 02:50:13;;;;;;;40.60;22.58;;;10.90;84.90;;;;;;5034830;28;20391;-79
2024/02/17 02:52:39;;;;;;;41.53;22.83;;;11.00;84.20;;;;;;5033958;28;20390;-76
2024/02/17 02:55:05;;;;;;;39.13;22.13;;;10.90;84.60;;;;;;5032212;28;20479;-79
2024/02/17 02:57:31;;;;;;;39.83;22.42;;;10.90;85.10;;;;;;5032674;28;20380;-77
2024/02/17 02:59:58;;;;;;;41.17;21.75;;;10.80;86.10;;;;;;5034297;28;20390;-77
2024/02/17 03:02:23;;;;;;;42.55;23.45;;;10.90;85.90;;;;;;5034564;28;20801;-78
2024/02/17 03:04:50;;;;;;;36.70;21.42;;;10.90;84.90;;;;;;5032672;28;20391;-76
2024/02/17 03:07:15;;;;;;;38.90;22.38;;;10.80;85.60;;;;;;5032575;28;20778;-76
2024/02/17 03:09:41;;;;;;;40.40;22.40;;;10.80;87.10;;;;;;5032748;28;20387;-77
2024/02/17 03:12:06;;;;;;;45.07;23.20;;;10.80;87.50;;;;;;5032656;28;20410;-76
2024/02/17 03:14:33;;;;;;;52.23;23.30;;;10.80;88.40;;;;;;5032133;28;20417;-77
2024/02/17 03:16:58;;;;;;;46.00;24.02;;;10.80;89.20;;;;;;5032675;28;20427;-77
2024/02/17 03:19:24;;;;;;;44.85;23.42;;;10.80;88.00;;;;;;5033016;28;20383;-77
2024/02/17 03:21:50;;;;;;;40.08;22.42;;;10.80;88.20;;;;;;5033870;28;20399;-76
2024/02/17 03:24:15;;;;;;;52.05;22.85;;;10.80;87.90;;;;;;5033421;28;20398;-77
2024/02/17 03:26:41;;;;;;;45.42;23.23;;;10.80;88.20;;;;;;5032065;28;20395;-79
2024/02/17 03:29:07;;;;;;;42.10;23.60;;;10.80;88.60;;;;;;5032201;28;20391;-78
2024/02/17 03:31:32;;;;;;;38.58;21.90;;;10.90;86.50;;;;;;5032868;28;20391;-78
2024/02/17 03:34:05;;;;;;;41.37;22.70;;;10.90;85.90;;;;;;5034553;28;20413;-76
2024/02/17 03:36:31;;;;;;;41.83;21.65;;;11.00;84.90;;;;;;5034335;28;20402;-77
2024/02/17 03:38:57;;;;;;;43.72;22.45;;;10.90;86.40;;;;;;5034286;28;20393;-79
2024/02/17 03:41:23;;;;;;;41.50;22.70;;;10.80;87.20;;;;;;5034312;28;20458;-77
2024/02/17 03:43:49;;;;;;;44.60;23.03;;;10.80;87.80;;;;;;5040055;28;20391;-78
2024/02/17 03:46:14;;;;;;;42.33;23.75;;;10.80;88.20;;;;;;5040324;28;20417;-77
2024/02/17 03:48:40;;;;;;;41.40;22.20;;;10.80;89.00;;;;;;5037750;28;20379;-76
2024/02/17 03:51:06;;;;;;;41.97;23.00;;;11.40;89.20;;;;;;5037290;28;20440;-77
2024/02/17 03:53:32;;;;;;;40.10;21.85;;;10.90;87.50;;;;;;5036745;28;20399;-77
2024/02/17 03:55:57;;;;;;;39.37;21.40;;;10.90;87.40;;;;;;5035094;28;20757;-79
2024/02/17 03:58:23;;;;;;;41.63;21.63;;;10.90;86.70;;;;;;5037597;28;20520;-77
2024/02/17 04:00:48;;;;;;;39.83;20.90;;;10.80;87.80;;;;;;5038327;28;20383;-77
2024/02/17 04:03:14;;;;;;;42.33;21.67;;;10.90;86.70;;;;;;5034962;28;20553;-76
2024/02/17 04:05:39;;;;;;;38.78;20.80;;;10.90;86.60;;;;;;5043497;28;20395;-77
2024/02/17 04:08:05;;;;;;;39.28;22.08;;;10.90;86.60;;;;;;5040142;28;20454;-77
2024/02/17 04:10:31;;;;;;;40.22;20.60;;;10.80;87.90;;;;;;5039773;28;20391;-76
2024/02/17 04:12:56;;;;;;;38.10;20.33;;;10.90;87.00;;;;;;5039388;28;20419;-78
2024/02/17 04:15:22;;;;;;;41.07;19.50;;;10.90;86.90;;;;;;5037609;28;20375;-77
2024/02/17 04:17:48;;;;;;;41.42;20.98;;;10.80;87.50;;;;;;5037497;28;20765;-78
2024/02/17 04:20:14;;;;;;;38.75;21.10;;;10.90;86.80;;;;;;5037744;28;20379;-77
2024/02/17 04:22:39;;;;;;;43.30;22.33;;;10.80;87.70;;;;;;5040000;28;20870;-76
2024/02/17 04:25:06;;;;;;;38.80;20.20;;;10.80;88.20;;;;;;5042154;28;20395;-77
2024/02/17 04:27:31;;;;;;;42.05;20.52;;;10.90;87.20;;;;;;5037530;28;20379;-77
2024/02/17 04:29:58;;;;;;;39.07;20.23;;;10.80;86.90;;;;;;5038244;28;20796;-76
2024/02/17 04:32:24;;;;;;;43.38;20.20;;;10.90;86.10;;;;;;5035307;28;20379;-76
2024/02/17 04:34:49;;;;;;;43.40;21.00;;;10.80;87.20;;;;;;5034281;28;20940;-78
2024/02/17 04:37:15;;;;;;;40.63;20.23;;;10.70;89.20;;;;;;5035017;28;20387;-76
2024/02/17 04:39:41;;;;;;;39.10;19.70;;;10.80;88.20;;;;;;5035624;28;20387;-77
2024/02/17 04:42:06;;;;;;;41.60;20.53;;;10.80;87.60;;;;;;5035373;28;20390;-76
2024/02/17 04:44:32;;;;;;;33.03;18.97;;;10.70;88.20;;;;;;5035376;28;20391;-76
2024/02/17 04:46:58;;;;;;;41.95;20.98;;;10.70;88.80;;;;;;5034404;28;20391;-77
2024/02/17 04:49:24;;;;;;;36.63;19.63;;;10.70;88.30;;;;;;5035082;28;20402;-77
2024/02/17 04:51:50;;;;;;;45.85;19.52;;;10.80;88.00;;;;;;5036457;28;20382;-77
2024/02/17 04:54:15;;;;;;;40.50;20.25;;;10.80;87.70;;;;;;5035602;28;20910;-76
2024/02/17 04:56:41;;;;;;;40.97;20.35;;;10.70;88.70;;;;;;5038305;28;20478;-77
2024/02/17 04:59:06;;;;;;;40.92;20.95;;;10.70;89.60;;;;;;5042536;28;20387;-76
2024/02/17 05:01:32;;;;;;;38.73;20.93;;;10.60;90.70;;;;;;5036169;28;20394;-76
2024/02/17 05:03:58;;;;;;;42.10;19.67;;;10.60;90.90;;;;;;5036212;28;20387;-76
2024/02/17 05:06:24;;;;;;;40.00;20.93;;;10.60;91.10;;;;;;5035079;28;20426;-78
2024/02/17 05:08:49;;;;;;;44.03;21.90;;;10.50;92.20;;;;;;5036321;28;20382;-79
2024/02/17 05:11:18;;;;;;;39.83;19.08;;;10.60;92.30;;;;;;5035444;28;20908;-77
2024/02/17 05:13:44;;;;;;;39.65;20.05;;;10.60;91.50;;;;;;5035064;28;20483;-79
2024/02/17 05:16:09;;;;;;;39.35;19.95;;;10.50;92.80;;;;;;5038614;28;20428;-76
2024/02/17 05:18:35;;;;;;;37.67;18.70;;;10.60;95.50;;;;;;5036363;28;20384;-76
2024/02/17 05:21:00;;;;;;;33.40;18.00;;;10.90;88.90;;;;;;5036706;28;20403;-77
2024/02/17 05:23:26;;;;;;;36.77;19.43;;;11.00;85.80;;;;;;5036165;28;20387;-77
2024/02/17 05:25:54;;;;;;;36.47;19.80;;;10.80;86.50;;;;;;5034870;28;20771;-78
2024/02/17 05:28:20;;;;;;;39.65;19.60;;;10.90;85.30;;;;;;5037787;28;20387;-77
2024/02/17 05:30:46;;;;;;;40.70;19.40;;;10.80;86.20;;;;;;5040332;28;20391;-77
2024/02/17 05:33:12;;;;;;;36.28;19.63;;;10.70;87.40;;;;;;5036856;28;20551;-77
2024/02/17 05:35:37;;;;;;;36.80;19.50;;;10.70;87.80;;;;;;5036517;28;20901;-76
2024/02/17 05:38:03;;;;;;;34.22;18.23;;;10.70;87.80;;;;;;5035567;28;20379;-78
2024/02/17 05:40:29;;;;;;;39.35;19.00;;;10.70;87.10;;;;;;5034730;28;20383;-78
2024/02/17 05:42:54;;;;;;;31.17;19.20;;;10.60;88.10;;;;;;5034002;28;20895;-77
2024/02/17 05:45:20;;;;;;;39.47;19.63;;;10.60;88.70;;;;;;5034217;28;20379;-76
2024/02/17 05:47:46;;;;;;;36.95;18.92;;;10.70;88.50;;;;;;5034538;28;20387;-77
2024/02/17 05:50:11;;;;;;;35.35;18.85;;;10.60;89.00;;;;;;5033247;28;20751;-77
2024/02/17 05:52:38;;;;;;;33.17;18.43;;;10.70;90.90;;;;;;5033395;28;20394;-77
2024/02/17 05:55:05;;;;;;;38.70;18.50;;;10.70;88.90;;;;;;5032084;28;20398;-76
2024/02/17 05:57:31;;;;;;;39.53;19.25;;;10.70;89.40;;;;;;5033483;28;20750;-76
2024/02/17 05:59:57;;;;;;;34.30;17.97;;;10.70;88.10;;;;;;5034799;28;20383;-77
2024/02/17 06:02:22;;;;;;;36.43;18.17;;;10.60;89.10;;;;;;5036397;28;20387;-77
2024/02/17 06:04:48;;;;;;;32.80;18.45;;;10.60;90.10;;;;;;5033024;28;20849;-77
2024/02/17 06:07:14;;;;;;;39.60;19.05;;;10.50;91.10;;;;;;5034931;28;20402;-77
2024/02/17 06:09:40;;;;;;;36.45;18.42;;;10.50;91.50;;;;;;5033269;28;20391;-77
2024/02/17 06:12:06;;;;;;;32.53;17.70;;;10.50;92.20;;;;;;5033426;28;20817;-76
2024/02/17 06:14:31;;;;;;;31.92;17.73;;;10.60;91.20;;;;;;5047131;28;20403;-77
2024/02/17 06:16:57;;;;;;;36.63;18.23;;;10.70;89.30;;;;;;5037351;28;20426;-77
2024/02/17 06:22:07;;;;;;;30.40;17.37;;;10.70;88.50;;;;;;5051899;28;20413;-77
2024/02/17 06:24:32;;;;;;;33.90;16.90;;;10.70;88.60;;;;;;5040914;28;20474;-79
2024/02/17 06:26:59;;;;;;;34.47;18.17;;;10.70;87.90;;;;;;5033767;28;20472;-77
2024/02/17 06:29:25;;;;;;;34.45;18.05;;;10.50;89.60;;;;;;5032027;28;20425;-77
2024/02/17 06:31:50;;;;;;;34.70;17.57;;;10.50;91.40;;;;;;5032585;28;20425;-77
2024/02/17 06:34:16;;;;;;;34.37;17.30;;;10.50;91.70;;;;;;5035459;28;20413;-76
2024/02/17 06:36:42;;;;;;;34.30;18.00;;;10.60;90.10;;;;;;5035384;28;20387;-77
2024/02/17 06:39:08;;;;;;;30.70;16.67;;;10.70;88.70;;;;;;5034282;28;20853;-76
2024/02/17 06:41:34;;;;;;;32.50;18.15;;;10.60;89.70;;;;;;5037854;28;20379;-73
2024/02/17 06:43:59;;;;;;;35.47;17.52;;;10.60;89.70;;;;;;5040618;28;20395;-75
2024/02/17 06:46:26;;;;;;;38.88;18.17;;;10.60;89.70;;;;;;5035945;28;20870;-77
2024/02/17 06:48:52;;;;;;;32.25;15.98;;;10.70;88.20;;;;;;5038157;28;20391;-77
2024/02/17 06:51:19;;;;;;;35.45;17.83;;;10.70;87.70;;;;;;5039479;28;20388;-77
2024/02/17 06:53:45;;;;;;;29.15;16.30;;;10.70;88.00;;;;;;5039659;28;20430;-77
2024/02/17 06:56:11;;;;;;;30.20;16.83;;;10.70;87.50;;;;;;5035155;28;20801;-76
2024/02/17 06:58:36;;;;;;;31.63;16.37;;;10.60;87.70;;;;;;5036317;28;20383;-78
2024/02/17 07:01:03;;;;;;;33.97;16.93;;;10.70;87.70;;;;;;5038482;28;20425;-77
2024/02/17 07:03:28;;;;;;;26.48;16.17;;;10.70;87.20;;;;;;5038489;28;20546;-78
2024/02/17 07:05:55;;;;;;;37.83;17.65;;;10.60;87.60;;;;;;5036741;28;20869;-78
2024/02/17 07:08:21;;;;;;;33.80;16.40;;;10.60;88.70;;;;;;5036791;28;20754;-77
2024/02/17 07:10:47;;;;;;;33.15;17.70;;;10.60;89.90;;;;;;5036309;28;20379;-76
2024/02/17 07:13:12;;;;;;;34.17;16.20;;;10.60;89.50;;;;;;5033612;28;20413;-77
2024/02/17 07:15:38;;;;;;;27.90;15.90;;;10.60;89.40;;;;;;5034071;28;20413;-77
2024/02/17 07:18:04;;;;;;;32.35;17.63;;;10.60;90.40;;;;;;5033448;28;20470;-76
2024/02/17 07:20:30;;;;;;;35.97;16.27;;;10.70;87.70;;;;;;5037790;28;20459;-79
2024/02/17 07:23:00;;;;;;;30.70;16.60;;;10.80;86.70;;;;;;5034525;28;20391;-77
2024/02/17 07:25:29;;;;;;;32.47;16.05;;;10.80;85.40;;;;;;5032559;28;20422;-78
2024/02/17 07:27:59;;;;;;;29.38;15.15;;;10.80;85.40;;;;;;5033053;28;20387;-77
2024/02/17 07:30:25;;;;;;;30.10;15.70;;;10.90;84.60;;;;;;5037727;28;20452;-77
2024/02/17 07:32:52;;;;;;;29.10;16.58;;;10.90;84.20;;;;;;5037463;28;20387;-77
2024/02/17 07:35:18;;;;;;;28.90;15.52;;;10.90;84.20;;;;;;5037362;28;20625;-77
2024/02/17 07:37:43;;;;;;;28.73;15.73;;;10.90;84.50;;;;;;5033383;28;20474;-77
2024/02/17 07:40:10;;;;;;;32.50;16.80;;;10.90;86.00;;;;;;5036636;28;20387;-76
2024/02/17 07:42:36;;;;;;;33.67;15.60;;;10.90;85.10;;;;;;5039445;28;20471;-77
2024/02/17 07:45:05;;;;;;;25.67;15.13;;;11.00;82.80;;;;;;5043689;28;20386;-75
2024/02/17 07:47:32;;;;;;;29.65;16.05;;;11.00;82.30;;;;;;5031894;28;20379;-74
2024/02/17 07:49:59;;;;;;;29.20;14.80;;;11.10;82.50;;;;;;5045405;28;20387;-72
2024/02/17 07:52:25;;;;;;;31.00;15.52;;;11.10;80.20;;;;;;5034586;28;20396;-76
2024/02/17 07:54:51;;;;;;;27.27;15.43;;;11.10;80.50;;;;;;5047959;28;20405;-75
2024/02/17 07:57:16;;;;;;;28.70;15.20;;;11.20;79.80;;;;;;5054283;28;20377;-73
2024/02/17 07:59:42;;;;;;;29.10;15.00;;;11.20;80.70;;;;;;5054183;28;20378;-74
2024/02/17 08:02:07;;;;;;;31.33;15.70;;;11.20;79.70;;;;;;5053930;28;20447;-75
2024/02/17 08:04:33;;;;;;;34.80;15.82;;;11.20;78.90;;;;;;5053556;28;20420;-76
2024/02/17 08:06:58;;;;;;;28.70;13.80;;;11.20;78.80;;;;;;5041067;28;20421;-74
2024/02/17 08:09:24;;;;;;;31.37;14.20;;;11.30;78.10;;;;;;5036296;28;20466;-73
2024/02/17 08:11:50;;;;;;;28.90;14.73;;;11.40;75.00;;;;;;5039858;28;20946;-73
2024/02/17 08:14:17;;;;;;;30.95;14.55;;;11.30;75.60;;;;;;5048317;28;20481;-74
2024/02/17 08:16:43;;;;;;;28.88;14.70;;;11.30;75.60;;;;;;5052582;28;20381;-75
2024/02/17 08:19:08;;;;;;;26.15;13.80;;;11.30;76.20;;;;;;5034047;28;20817;-75
2024/02/17 08:21:34;;;;;;;25.50;14.20;;;11.30;76.60;;;;;;5033895;28;20461;-74
2024/02/17 08:23:59;;;;;;;29.87;15.27;;;11.20;77.40;;;;;;5042570;28;20412;-73
2024/02/17 08:26:27;;;;;;;26.77;14.37;;;11.30;76.40;;;;;;5039128;28;20497;-73
2024/02/17 08:28:52;;;;;;;29.10;13.68;;;11.40;75.20;;;;;;5034377;28;20395;-72
2024/02/17 08:31:20;;;;;;;29.85;13.48;;;11.50;74.80;;;;;;5052270;28;20393;-74
2024/02/17 08:33:47;;;;;;;26.27;13.57;;;11.50;74.70;;;;;;5051021;28;20885;-71
2024/02/17 08:36:12;;;;;;;26.27;13.93;;;11.50;72.80;;;;;;5052416;28;20412;-72
2024/02/17 08:38:38;;;;;;;26.87;14.07;;;11.60;71.50;;;;;;5044117;28;20870;-73
2024/02/17 08:41:04;;;;;;;25.03;13.70;;;11.70;70.30;;;;;;5051372;28;20564;-73
2024/02/17 08:43:29;;;;;;;22.60;13.03;;;11.70;70.00;;;;;;5050743;28;20425;-72
2024/02/17 08:45:56;;;;;;;37.80;14.40;;;11.60;70.40;;;;;;5048759;28;20490;-73
2024/02/17 08:48:22;;;;;;;30.92;13.70;;;11.60;70.20;;;;;;5054610;28;20381;-73
2024/02/17 08:50:48;;;;;;;30.45;13.90;;;11.60;70.20;;;;;;5054605;28;20393;-72
2024/02/17 08:53:14;;;;;;;23.85;13.50;;;11.60;71.90;;;;;;5038925;28;21019;-73
2024/02/17 08:55:40;;;;;;;29.02;14.07;;;11.70;71.30;;;;;;5038132;28;20398;-73
2024/02/17 08:58:05;;;;;;;28.55;13.70;;;12.00;67.00;;;;;;5045778;28;20386;-73
2024/02/17 09:00:35;;;;;;;27.58;13.00;;;12.00;67.80;;;;;;5037192;28;20473;-73
2024/02/17 09:03:00;;;;;;;34.97;14.10;;;12.00;69.00;;;;;;5033129;28;20399;-72
2024/02/17 09:05:26;;;;;;;32.50;14.10;;;12.20;67.40;;;;;;5031020;28;20389;-72
2024/02/17 09:07:51;;;;;;;27.63;12.90;;;12.20;65.20;;;;;;5028887;28;20452;-72
2024/02/17 09:10:17;;;;;;;26.15;13.40;;;12.20;62.90;;;;;;5030862;28;20884;-72
2024/02/17 09:12:43;;;;;;;28.40;14.27;;;12.20;62.80;;;;;;5036457;28;20405;-72
2024/02/17 09:15:09;;;;;;;27.13;12.93;;;12.10;63.10;;;;;;5036725;28;20391;-72
2024/02/17 09:17:34;;;;;;;36.08;14.15;;;12.00;63.80;;;;;;5030964;28;20383;-72
2024/02/17 09:20:00;;;;;;;23.93;13.10;;;12.00;65.10;;;;;;5033227;28;20414;-72
2024/02/17 09:22:25;;;;;;;25.07;13.63;;;11.90;65.50;;;;;;5030619;28;20445;-72
2024/02/17 09:24:53;;;;;;;27.17;14.18;;;11.80;66.20;;;;;;5031865;28;20383;-72
2024/02/17 09:27:22;;;;;;;31.02;14.10;;;11.70;67.00;;;;;;5045994;28;20770;-72
2024/02/17 09:29:47;;;;;;;29.90;14.07;;;11.70;68.10;;;;;;5046988;28;20425;-72
2024/02/17 09:32:14;;;;;;;31.65;14.05;;;11.90;66.70;;;;;;5048804;28;20399;-72
2024/02/17 09:34:40;;;;;;;26.77;13.90;;;11.90;66.10;;;;;;5048585;28;20445;-72
2024/02/17 09:37:08;;;;;;;31.20;14.00;;;12.20;64.30;;;;;;5036123;28;20723;-72
2024/02/17 09:39:35;;;;;;;30.20;14.17;;;12.10;63.30;;;;;;5037104;28;20816;-72
2024/02/17 09:42:01;;;;;;;26.73;13.68;;;11.90;65.30;;;;;;5050324;28;20385;-73
2024/02/17 09:44:26;;;;;;;25.30;13.00;;;11.80;66.60;;;;;;5033477;28;20961;-72
2024/02/17 09:46:53;;;;;;;30.03;14.80;;;11.90;66.60;;;;;;5033971;28;20480;-72
2024/02/17 09:49:24;;;;;;;30.95;14.30;;;11.90;65.90;;;;;;5031860;28;20391;-73
2024/02/17 09:51:50;;;;;;;31.05;14.95;;;11.90;65.80;;;;;;5029291;28;20403;-72
2024/02/17 09:54:20;;;;;;;28.05;14.30;;;11.90;65.30;;;;;;5030159;28;20906;-72
2024/02/17 09:56:48;;;;;;;28.83;15.07;;;11.80;66.30;;;;;;5030785;28;20395;-73
2024/02/17 09:59:13;;;;;;;40.40;14.80;;;11.80;65.70;;;;;;5030918;28;20502;-72
2024/02/17 10:01:39;;;;;;;34.80;15.50;;;11.70;67.40;;;;;;5032810;28;20458;-74
2024/02/17 10:04:06;;;;;;;35.10;15.35;;;11.60;68.60;;;;;;5044368;28;20404;-72
2024/02/17 10:06:31;;;;;;;30.88;14.63;;;11.60;69.20;;;;;;5045285;28;20897;-72
2024/02/17 10:08:57;;;;;;;42.10;16.45;;;11.60;70.30;;;;;;5044543;28;20464;-74
2024/02/17 10:11:23;;;;;;;32.50;16.33;;;11.60;70.20;;;;;;5043483;28;20761;-71
2024/02/17 10:13:58;;;;;;;32.75;15.90;;;11.50;71.00;;;;;;5031427;28;20413;-72
2024/02/17 10:16:24;;;;;;;40.72;16.70;;;11.60;71.40;;;;;;5039594;28;20472;-71
2024/02/17 10:18:50;;;;;;;28.83;15.48;;;11.50;73.40;;;;;;5035872;28;20474;-73
2024/02/17 10:21:16;;;;;;;30.90;15.88;;;11.60;71.80;;;;;;5031485;28;20414;-72
2024/02/17 10:23:41;;;;;;;27.42;15.35;;;11.50;72.20;;;;;;5031453;28;20422;-71
2024/02/17 10:26:07;;;;;;;36.38;17.13;;;11.50;73.20;;;;;;5040679;28;20732;-71
2024/02/17 10:28:33;;;;;;;29.15;16.90;;;11.60;72.10;;;;;;5043226;28;20417;-72
2024/02/17 10:31:01;;;;;;;31.15;16.00;;;11.70;71.80;;;;;;5031479;28;20387;-72
2024/02/17 10:33:28;;;;;;;32.30;16.08;;;11.60;71.40;;;;;;5030904;28;20403;-73
2024/02/17 10:35:56;;;;;;;31.73;16.37;;;11.60;71.10;;;;;;5044135;28;20504;-73
2024/02/17 10:38:24;;;;;;;37.00;16.67;;;11.60;70.80;;;;;;5043800;28;20450;-73
2024/02/17 10:40:51;;;;;;;33.92;17.95;;;11.70;70.00;;;;;;5048092;28;20398;-72
2024/02/17 10:43:18;;;;;;;45.42;18.40;;;11.90;68.10;;;;;;5035930;28;20391;-72
2024/02/17 10:45:44;;;;;;;32.13;17.60;;;11.80;68.50;;;;;;5037084;28;20397;-71
2024/02/17 10:48:10;;;;;;;27.60;15.88;;;11.90;67.90;;;;;;5033306;28;20406;-71
2024/02/17 10:50:41;;;;;;;33.83;17.42;;;12.00;66.70;;;;;;5042938;28;20430;-71
2024/02/17 10:53:09;;;;;;;33.28;17.63;;;12.00;66.70;;;;;;5039212;28;20405;-71
2024/02/17 10:55:39;;;;;;;43.50;18.00;;;12.00;66.00;;;;;;5050652;28;20470;-71
2024/02/17 10:58:14;;;;;;;31.40;16.50;;;12.00;65.70;;;;;;5036372;28;20427;-70
2024/02/17 11:00:47;;;;;;;30.73;16.33;;;11.90;65.90;;;;;;5040138;28;20386;-73
2024/02/17 11:03:22;;;;;;;35.78;16.83;;;11.90;67.30;;;;;;5044192;28;20385;-72
2024/02/17 11:05:51;;;;;;;32.13;17.83;;;12.00;67.10;;;;;;5048825;28;20413;-72
2024/02/17 11:08:18;;;;;;;34.28;17.65;;;12.20;64.00;;;;;;5035680;28;20387;-72
2024/02/17 11:10:44;;;;;;;39.07;17.97;;;12.30;63.60;;;;;;5031458;28;20382;-73
2024/02/17 11:13:29;;;;;;;36.93;18.50;;;12.30;62.70;;;;;;5036494;28;20407;-73
2024/02/17 11:16:04;;;;;;;35.55;18.42;;;12.40;60.90;;;;;;5010494;28;20381;-73
2024/02/17 11:18:37;;;;;;;39.30;18.90;;;12.40;62.80;;;;;;5028603;28;20386;-73
2024/02/17 11:21:03;;;;;;;46.08;20.35;;;12.40;61.70;;;;;;5039348;28;20402;-72
2024/02/17 11:23:34;;;;;;;36.88;18.17;;;12.50;61.10;;;;;;5046127;28;20880;-73
2024/02/17 11:25:59;;;;;;;38.05;19.27;;;12.60;59.40;;;;;;5049865;28;20395;-72
2024/02/17 11:28:31;;;;;;;44.22;20.02;;;12.70;58.00;;;;;;5032487;28;20393;-73
2024/02/17 11:30:59;;;;;;;43.30;19.70;;;12.80;57.90;;;;;;5043495;28;20390;-72
2024/02/17 11:33:32;;;;;;;32.70;18.80;;;12.90;58.40;;;;;;5047835;28;20811;-73
2024/02/17 11:36:01;;;;;;;35.67;20.00;;;13.00;56.00;;;;;;5050351;28;20411;-73
2024/02/17 11:38:28;;;;;;;37.25;19.00;;;12.90;55.70;;;;;;5043766;28;20421;-72
2024/02/17 11:40:54;;;;;;;36.58;18.27;;;12.80;55.90;;;;;;5044034;28;20381;-72
2024/02/17 11:43:31;;;;;;;31.63;17.40;;;12.80;57.00;;;;;;5033601;28;20396;-73
2024/02/17 11:45:57;;;;;;;37.75;17.83;;;12.80;58.00;;;;;;5032448;28;20395;-71
2024/02/17 11:48:23;;;;;;;32.08;17.50;;;13.00;57.20;;;;;;5032559;28;20394;-73
2024/02/17 11:50:48;;;;;;;36.43;16.73;;;13.00;57.20;;;;;;5043159;28;20389;-73
2024/02/17 11:53:14;;;;;;;31.23;17.10;;;13.00;56.90;;;;;;5039929;28;20407;-73
2024/02/17 11:55:41;;;;;;;32.25;16.88;;;13.00;57.00;;;;;;5029083;28;20949;-73
2024/02/17 11:58:09;;;;;;;31.83;16.85;;;13.10;55.60;;;;;;5030898;28;20379;-72
2024/02/17 12:00:47;;;;;;;35.10;17.48;;;13.30;53.90;;;;;;5031640;28;20401;-73
2024/02/17 12:03:12;;;;;;;37.90;16.83;;;13.50;54.00;;;;;;5045182;28;20386;-73
2024/02/17 12:05:38;;;;;;;28.70;16.30;;;13.60;52.20;;;;;;5045453;28;20966;-73
2024/02/17 12:08:04;;;;;;;40.50;17.33;;;13.60;52.60;;;;;;5026098;28;21004;-73
2024/02/17 12:10:29;;;;;;;37.17;16.75;;;13.70;51.30;;;;;;5028200;28;20387;-70
2024/02/17 12:12:56;;;;;;;36.67;17.48;;;13.80;50.60;;;;;;5028715;28;20410;-72
2024/02/17 12:15:21;;;;;;;30.05;16.33;;;13.80;50.40;;;;;;5038179;28;20437;-72
2024/02/17 12:17:47;;;;;;;30.15;15.50;;;13.80;49.60;;;;;;5040521;28;20387;-72
2024/02/17 12:20:15;;;;;;;27.27;15.18;;;13.70;50.80;;;;;;5030179;28;20466;-72
2024/02/17 12:22:50;;;;;;;29.33;15.80;;;13.70;50.70;;;;;;5027967;28;20387;-72
2024/02/17 12:25:16;;;;;;;29.27;15.68;;;13.80;51.20;;;;;;5027197;28;20383;-73
2024/02/17 12:27:48;;;;;;;29.23;15.77;;;13.80;50.40;;;;;;5029976;28;20445;-72